Time;durP1;ratioP1;P1;durP2;ratioP2;P2;SDS_P1;SDS_P2;PMS_P1;PMS_P2;Temp;Humidity;BMP_temperature;BMP_pressure;BME280_temperature;BME280_humidity;BME280_pressure;Samples;Min_cycle;Max_cycle;Signal;HPM_P1;HPM_P2
2023/10/21 00:00:00;;;;;;;4.55;3.58;;;;;;;;;;5084360;28;20195;-68
2023/10/21 00:02:26;;;;;;;3.42;3.22;;;;;;;;;;5080917;28;20215;-67
2023/10/21 00:04:52;;;;;;;4.97;3.30;;;;;;;;;;5079790;28;20708;-67
2023/10/21 00:07:19;;;;;;;5.53;4.47;;;;;;;;;;5082237;28;20201;-67
2023/10/21 00:09:45;;;;;;;5.55;3.97;;;;;;;;;;5083777;28;20220;-68
2023/10/21 00:12:12;;;;;;;4.28;3.88;;;;;;;;;;5083014;28;20207;-67
2023/10/21 00:14:39;;;;;;;3.90;3.60;;;;;;;;;;5079889;28;20220;-67
2023/10/21 00:17:05;;;;;;;3.88;3.67;;;;;;;;;;5080186;28;20664;-67
2023/10/21 00:19:31;;;;;;;6.82;3.47;;;;;;;;;;5079951;28;20192;-67
2023/10/21 00:21:58;;;;;;;3.55;3.35;;;;;;;;;;5080272;28;20211;-67
2023/10/21 00:24:25;;;;;;;3.67;3.38;;;;;;;;;;5082188;28;20307;-67
2023/10/21 00:26:51;;;;;;;3.83;3.55;;;;;;;;;;5083543;28;20196;-67
2023/10/21 00:29:19;;;;;;;6.00;3.75;;;;;;;;;;5081794;28;20227;-67
2023/10/21 00:31:45;;;;;;;3.88;3.50;;;;;;;;;;5080017;28;20204;-67
2023/10/21 00:34:12;;;;;;;3.90;3.60;;;;;;;;;;5079873;28;20220;-67
2023/10/21 00:36:38;;;;;;;4.00;3.80;;;;;;;;;;5083491;28;20207;-68
2023/10/21 00:39:10;;;;;;;6.07;4.50;;;;;;;;;;5082544;28;20227;-68
2023/10/21 00:41:36;;;;;;;5.07;3.80;;;;;;;;;;5079761;28;20200;-69
2023/10/21 00:44:04;;;;;;;4.32;4.03;;;;;;;;;;5079681;28;20224;-68
2023/10/21 00:46:32;;;;;;;5.00;4.07;;;;;;;;;;5082773;28;20686;-68
2023/10/21 00:48:58;;;;;;;4.00;3.70;;;;;;;;;;5083097;28;20219;-68
2023/10/21 00:51:25;;;;;;;5.43;4.00;;;;;;;;;;5080811;28;20192;-68
2023/10/21 00:53:52;;;;;;;4.90;4.50;;;;;;;;;;5079301;28;20229;-68
2023/10/21 00:56:18;;;;;;;5.50;3.97;;;;;;;;;;5080930;28;20200;-68
2023/10/21 00:58:45;;;;;;;4.60;4.28;;;;;;;;;;5083092;28;20191;-68
2023/10/21 01:01:13;;;;;;;4.45;3.85;;;;;;;;;;5082341;28;20195;-68
2023/10/21 01:03:41;;;;;;;4.70;4.25;;;;;;;;;;5079576;28;20197;-68
2023/10/21 01:06:07;;;;;;;4.25;3.75;;;;;;;;;;5079610;28;20247;-68
2023/10/21 01:08:39;;;;;;;3.88;3.63;;;;;;;;;;5079599;28;20213;-68
2023/10/21 01:11:05;;;;;;;4.85;3.72;;;;;;;;;;5079930;28;20196;-68
2023/10/21 01:13:32;;;;;;;3.65;3.45;;;;;;;;;;5082529;28;20191;-67
2023/10/21 01:15:58;;;;;;;6.35;3.97;;;;;;;;;;5082966;28;20219;-68
2023/10/21 01:18:25;;;;;;;4.05;3.75;;;;;;;;;;5080669;28;20572;-67
2023/10/21 01:20:53;;;;;;;3.42;3.33;;;;;;;;;;5079414;28;20568;-68
2023/10/21 01:23:21;;;;;;;6.72;3.58;;;;;;;;;;5080811;28;20668;-68
2023/10/21 01:25:47;;;;;;;3.97;3.63;;;;;;;;;;5082479;28;20215;-67
2023/10/21 01:28:14;;;;;;;3.58;3.35;;;;;;;;;;5082570;28;20215;-67
2023/10/21 01:30:41;;;;;;;5.15;2.65;;;;;;;;;;5082916;28;20196;-67
2023/10/21 01:33:07;;;;;;;1.95;1.80;;;;;;;;;;5082854;28;20200;-68
2023/10/21 01:35:33;;;;;;;2.00;1.65;;;;;;;;;;5079273;28;20596;-68
2023/10/21 01:38:00;;;;;;;1.33;1.33;;;;;;;;;;5079299;28;20205;-68
2023/10/21 01:40:28;;;;;;;1.67;1.20;;;;;;;;;;5081236;28;20193;-68
2023/10/21 01:42:54;;;;;;;3.05;1.25;;;;;;;;;;5082503;28;20250;-68
2023/10/21 01:45:21;;;;;;;0.70;0.70;;;;;;;;;;5081110;28;20226;-68
2023/10/21 01:47:47;;;;;;;1.23;1.20;;;;;;;;;;5079465;28;20203;-68
2023/10/21 01:50:13;;;;;;;0.70;0.70;;;;;;;;;;5080954;28;20220;-68
2023/10/21 01:52:40;;;;;;;0.85;0.70;;;;;;;;;;5086644;28;20697;-68
2023/10/21 01:55:06;;;;;;;1.88;1.08;;;;;;;;;;5085874;28;20211;-68
2023/10/21 01:57:34;;;;;;;0.82;0.50;;;;;;;;;;5083288;28;20590;-68
2023/10/21 02:00:01;;;;;;;1.40;0.75;;;;;;;;;;5082867;28;20203;-68
2023/10/21 02:02:27;;;;;;;3.38;0.98;;;;;;;;;;5084602;28;20659;-68
2023/10/21 02:04:54;;;;;;;0.50;0.50;;;;;;;;;;5085868;28;20265;-69
2023/10/21 02:07:20;;;;;;;0.98;0.50;;;;;;;;;;5084934;28;20675;-67
2023/10/21 02:09:46;;;;;;;0.35;0.35;;;;;;;;;;5082346;28;20215;-68
2023/10/21 02:12:12;;;;;;;0.50;0.50;;;;;;;;;;5078275;28;20200;-68
2023/10/21 02:14:40;;;;;;;0.60;0.60;;;;;;;;;;5078758;28;20710;-70
2023/10/21 02:17:06;;;;;;;2.50;1.30;;;;;;;;;;5080469;28;20219;-68
2023/10/21 02:19:33;;;;;;;1.33;0.90;;;;;;;;;;5071726;28;20205;-68
2023/10/21 02:21:59;;;;;;;0.77;0.77;;;;;;;;;;5080449;28;20234;-70
2023/10/21 02:24:25;;;;;;;0.93;0.93;;;;;;;;;;5078388;28;20782;-68
2023/10/21 02:26:52;;;;;;;2.83;1.10;;;;;;;;;;5076537;28;20610;-69
2023/10/21 02:29:18;;;;;;;1.05;0.90;;;;;;;;;;5076712;28;20228;-69
2023/10/21 02:31:46;;;;;;;1.52;0.90;;;;;;;;;;5075964;28;20257;-70
2023/10/21 02:34:12;;;;;;;0.73;0.73;;;;;;;;;;5076206;28;20224;-69
2023/10/21 02:36:38;;;;;;;0.63;0.63;;;;;;;;;;5079397;28;20211;-70
2023/10/21 02:39:07;;;;;;;0.95;0.80;;;;;;;;;;5079893;28;20211;-70
2023/10/21 02:41:34;;;;;;;0.80;0.80;;;;;;;;;;5079854;28;20235;-70
2023/10/21 02:44:00;;;;;;;0.77;0.77;;;;;;;;;;5079767;28;20224;-69
2023/10/21 02:46:26;;;;;;;0.68;0.68;;;;;;;;;;5078357;28;20679;-68
2023/10/21 02:48:54;;;;;;;1.08;0.90;;;;;;;;;;5076136;28;20319;-69
2023/10/21 02:51:20;;;;;;;1.63;0.98;;;;;;;;;;5076480;28;20212;-69
2023/10/21 02:53:46;;;;;;;1.05;1.05;;;;;;;;;;5079221;28;20219;-69
2023/10/21 02:56:14;;;;;;;1.00;1.00;;;;;;;;;;5079663;28;20238;-68
2023/10/21 02:58:41;;;;;;;2.00;1.08;;;;;;;;;;5076569;28;20204;-68
2023/10/21 03:01:12;;;;;;;1.02;1.00;;;;;;;;;;5075286;28;20246;-69
2023/10/21 03:03:39;;;;;;;1.42;1.27;;;;;;;;;;5078271;28;20316;-69
2023/10/21 03:06:08;;;;;;;0.93;0.70;;;;;;;;;;5079187;28;20203;-69
2023/10/21 03:08:34;;;;;;;1.67;1.00;;;;;;;;;;5070617;28;20270;-69
2023/10/21 03:11:03;;;;;;;1.10;1.00;;;;;;;;;;5073992;28;20222;-69
2023/10/21 03:13:30;;;;;;;0.93;0.70;;;;;;;;;;5079024;28;20212;-70
2023/10/21 03:15:56;;;;;;;1.25;0.88;;;;;;;;;;5078664;28;20228;-70
2023/10/21 03:18:22;;;;;;;0.93;0.50;;;;;;;;;;5078648;28;20220;-68
2023/10/21 03:20:50;;;;;;;0.65;0.63;;;;;;;;;;5078578;28;20208;-68
2023/10/21 03:23:18;;;;;;;0.50;0.50;;;;;;;;;;5078699;28;20226;-68
2023/10/21 03:25:44;;;;;;;2.60;0.63;;;;;;;;;;5079277;28;20220;-68
2023/10/21 03:28:11;;;;;;;0.73;0.70;;;;;;;;;;5080094;28;20201;-68
2023/10/21 03:30:37;;;;;;;0.60;0.60;;;;;;;;;;5081883;28;20213;-68
2023/10/21 03:33:03;;;;;;;0.82;0.40;;;;;;;;;;5083333;28;20195;-68
2023/10/21 03:35:30;;;;;;;0.40;0.40;;;;;;;;;;5081609;28;20224;-68
2023/10/21 03:37:56;;;;;;;1.05;0.82;;;;;;;;;;5080034;28;20201;-68
2023/10/21 03:40:23;;;;;;;0.90;0.60;;;;;;;;;;5079520;28;20201;-68
2023/10/21 03:42:50;;;;;;;0.47;0.47;;;;;;;;;;5082925;28;20199;-68
2023/10/21 03:45:16;;;;;;;1.30;0.43;;;;;;;;;;5083988;28;20234;-68
2023/10/21 03:47:42;;;;;;;0.52;0.52;;;;;;;;;;5082954;28;20203;-68
2023/10/21 03:50:09;;;;;;;0.52;0.52;;;;;;;;;;5082051;28;20301;-69
2023/10/21 03:52:35;;;;;;;0.43;0.43;;;;;;;;;;5080382;28;20204;-69
2023/10/21 03:55:02;;;;;;;0.50;0.50;;;;;;;;;;5078161;28;20216;-68
2023/10/21 03:57:29;;;;;;;0.50;0.50;;;;;;;;;;5079371;28;20201;-69
2023/10/21 03:59:56;;;;;;;0.40;0.40;;;;;;;;;;5081803;28;20192;-68
2023/10/21 04:02:22;;;;;;;0.40;0.40;;;;;;;;;;5081688;28;20206;-69
2023/10/21 04:04:48;;;;;;;2.30;0.47;;;;;;;;;;5080396;28;20603;-69
2023/10/21 04:07:15;;;;;;;0.40;0.40;;;;;;;;;;5080488;28;20192;-69
2023/10/21 04:09:41;;;;;;;1.75;0.68;;;;;;;;;;5082501;28;20247;-69
2023/10/21 04:12:07;;;;;;;2.25;0.80;;;;;;;;;;5083593;28;20200;-69
2023/10/21 04:14:36;;;;;;;0.60;0.52;;;;;;;;;;5082024;28;20224;-69
2023/10/21 04:17:03;;;;;;;0.60;0.57;;;;;;;;;;5080002;28;20207;-69
2023/10/21 04:19:29;;;;;;;0.43;0.43;;;;;;;;;;5080670;28;20243;-69
2023/10/21 04:21:55;;;;;;;0.50;0.50;;;;;;;;;;5083709;28;20614;-69
2023/10/21 04:24:21;;;;;;;4.22;0.60;;;;;;;;;;5083231;28;20220;-69
2023/10/21 04:26:48;;;;;;;1.35;0.30;;;;;;;;;;5080470;28;20197;-69
2023/10/21 04:29:15;;;;;;;0.73;0.50;;;;;;;;;;5079961;28;20212;-69
2023/10/21 04:31:43;;;;;;;0.50;0.50;;;;;;;;;;5081913;28;20213;-69
2023/10/21 04:34:09;;;;;;;2.17;0.50;;;;;;;;;;5083022;28;20251;-69
2023/10/21 04:36:35;;;;;;;0.70;0.43;;;;;;;;;;5082242;28;20200;-69
2023/10/21 04:39:02;;;;;;;0.90;0.40;;;;;;;;;;5079839;28;20203;-69
2023/10/21 04:41:28;;;;;;;1.27;0.38;;;;;;;;;;5079737;28;20204;-69
2023/10/21 04:43:55;;;;;;;1.65;0.60;;;;;;;;;;5082855;28;20202;-69
2023/10/21 04:46:21;;;;;;;0.50;0.50;;;;;;;;;;5083202;28;20586;-69
2023/10/21 04:48:49;;;;;;;0.90;0.50;;;;;;;;;;5080687;28;20208;-69
2023/10/21 04:51:15;;;;;;;1.70;0.50;;;;;;;;;;5079799;28;20239;-69
2023/10/21 04:53:41;;;;;;;1.42;0.70;;;;;;;;;;5081226;28;20208;-69
2023/10/21 04:56:07;;;;;;;0.50;0.50;;;;;;;;;;5083090;28;20209;-69
2023/10/21 04:58:34;;;;;;;0.77;0.77;;;;;;;;;;5082372;28;20203;-69
2023/10/21 05:01:00;;;;;;;1.38;0.52;;;;;;;;;;5079450;28;20573;-69
2023/10/21 05:03:26;;;;;;;0.95;0.60;;;;;;;;;;5079647;28;20210;-69
2023/10/21 05:05:54;;;;;;;2.78;0.57;;;;;;;;;;5082666;28;20290;-69
2023/10/21 05:08:20;;;;;;;0.57;0.57;;;;;;;;;;5082976;28;20686;-69
2023/10/21 05:10:46;;;;;;;0.40;0.40;;;;;;;;;;5080616;28;20239;-69
2023/10/21 05:13:13;;;;;;;2.53;0.73;;;;;;;;;;5079501;28;20196;-69
2023/10/21 05:15:40;;;;;;;2.65;0.50;;;;;;;;;;5080719;28;20220;-69
2023/10/21 05:18:06;;;;;;;4.28;0.63;;;;;;;;;;5082837;28;20204;-69
2023/10/21 05:20:33;;;;;;;0.65;0.43;;;;;;;;;;5082476;28;20598;-69
2023/10/21 05:23:00;;;;;;;0.40;0.40;;;;;;;;;;5079555;28;20200;-69
2023/10/21 05:25:27;;;;;;;0.47;0.47;;;;;;;;;;5081302;28;20299;-69
2023/10/21 05:27:53;;;;;;;0.55;0.55;;;;;;;;;;5086331;28;20207;-69
2023/10/21 05:30:19;;;;;;;0.50;0.50;;;;;;;;;;5086959;28;20215;-68
2023/10/21 05:32:45;;;;;;;1.27;0.47;;;;;;;;;;5084879;28;20200;-60
2023/10/21 05:35:12;;;;;;;1.23;0.70;;;;;;;;;;5082966;28;20224;-60
2023/10/21 05:37:38;;;;;;;1.42;0.70;;;;;;;;;;5083890;28;20211;-60
2023/10/21 05:40:07;;;;;;;1.00;0.70;;;;;;;;;;5086604;28;20295;-60
2023/10/21 05:42:33;;;;;;;0.90;0.90;;;;;;;;;;5086437;28;20200;-60
2023/10/21 05:45:00;;;;;;;2.65;0.90;;;;;;;;;;5074500;28;20251;-61
2023/10/21 05:47:27;;;;;;;2.67;0.93;;;;;;;;;;5082938;28;20192;-59
2023/10/21 05:49:53;;;;;;;1.05;1.00;;;;;;;;;;5085409;28;20217;-59
2023/10/21 05:52:19;;;;;;;1.10;1.00;;;;;;;;;;5086376;28;20199;-59
2023/10/21 05:54:45;;;;;;;4.32;0.95;;;;;;;;;;5084146;28;20594;-59
2023/10/21 05:57:13;;;;;;;2.25;0.75;;;;;;;;;;5082582;28;20211;-58
2023/10/21 05:59:40;;;;;;;1.17;1.13;;;;;;;;;;5083395;28;20200;-59
2023/10/21 06:02:06;;;;;;;1.77;1.02;;;;;;;;;;5086182;28;20200;-59
2023/10/21 06:04:32;;;;;;;2.28;0.98;;;;;;;;;;5085648;28;20227;-59
2023/10/21 06:06:59;;;;;;;1.50;1.10;;;;;;;;;;5082620;28;20200;-59
2023/10/21 06:09:26;;;;;;;2.10;1.20;;;;;;;;;;5082336;28;20535;-59
2023/10/21 06:11:53;;;;;;;1.60;1.42;;;;;;;;;;5084530;28;20284;-59
2023/10/21 06:14:21;;;;;;;2.28;1.30;;;;;;;;;;5085810;28;20215;-59
2023/10/21 06:16:47;;;;;;;5.43;1.08;;;;;;;;;;5084178;28;20203;-59
2023/10/21 06:19:13;;;;;;;6.43;1.30;;;;;;;;;;5082130;28;20660;-59
2023/10/21 06:21:40;;;;;;;1.60;1.20;;;;;;;;;;5082504;28;20204;-59
2023/10/21 06:24:07;;;;;;;1.60;1.25;;;;;;;;;;5085270;28;20216;-59
2023/10/21 06:26:33;;;;;;;1.30;1.20;;;;;;;;;;5086034;28;20351;-60
2023/10/21 06:29:00;;;;;;;1.05;1.05;;;;;;;;;;5082758;28;20197;-59
2023/10/21 06:31:27;;;;;;;1.10;0.98;;;;;;;;;;5081973;28;20208;-59
2023/10/21 06:33:54;;;;;;;1.10;1.10;;;;;;;;;;5083574;28;20215;-60
2023/10/21 06:36:20;;;;;;;3.55;1.10;;;;;;;;;;5084131;28;20205;-59
2023/10/21 06:38:49;;;;;;;2.15;1.15;;;;;;;;;;5084178;28;20207;-59
2023/10/21 06:41:15;;;;;;;1.52;1.08;;;;;;;;;;5082020;28;20197;-59
2023/10/21 06:43:41;;;;;;;1.30;1.30;;;;;;;;;;5081851;28;20219;-60
2023/10/21 06:46:08;;;;;;;1.23;1.23;;;;;;;;;;5085121;28;20599;-60
2023/10/21 06:48:35;;;;;;;1.48;1.38;;;;;;;;;;5085047;28;20719;-60
2023/10/21 06:51:02;;;;;;;1.67;1.48;;;;;;;;;;5081801;28;20219;-60
2023/10/21 06:53:28;;;;;;;4.22;1.00;;;;;;;;;;5088545;28;20208;-60
2023/10/21 06:55:54;;;;;;;1.10;1.10;;;;;;;;;;5082900;28;20223;-60
2023/10/21 06:58:20;;;;;;;1.63;1.27;;;;;;;;;;5081184;28;20609;-60
2023/10/21 07:00:47;;;;;;;1.08;1.08;;;;;;;;;;5080790;28;20196;-60
2023/10/21 07:03:14;;;;;;;1.27;1.17;;;;;;;;;;5080724;28;20618;-60
2023/10/21 07:05:41;;;;;;;2.50;1.30;;;;;;;;;;5080453;28;20228;-59
2023/10/21 07:08:07;;;;;;;2.95;1.73;;;;;;;;;;5073365;28;20271;-60
2023/10/21 07:10:34;;;;;;;1.95;1.65;;;;;;;;;;5079441;28;20219;-60
2023/10/21 07:13:01;;;;;;;3.80;1.60;;;;;;;;;;5080488;28;20508;-60
2023/10/21 07:15:28;;;;;;;2.03;1.77;;;;;;;;;;5080951;28;20827;-60
2023/10/21 07:17:56;;;;;;;3.67;1.88;;;;;;;;;;5079492;28;20367;-59
2023/10/21 07:20:22;;;;;;;1.92;1.83;;;;;;;;;;5078934;28;20743;-60
2023/10/21 07:22:50;;;;;;;1.30;1.27;;;;;;;;;;5080858;28;20197;-60
2023/10/21 07:25:18;;;;;;;2.55;1.13;;;;;;;;;;5084027;28;20215;-60
2023/10/21 07:27:44;;;;;;;1.00;1.00;;;;;;;;;;5083979;28;20226;-60
2023/10/21 07:30:11;;;;;;;2.33;1.30;;;;;;;;;;5077614;28;20684;-59
2023/10/21 07:32:37;;;;;;;0.90;0.90;;;;;;;;;;5077370;28;20209;-58
2023/10/21 07:35:03;;;;;;;0.60;0.60;;;;;;;;;;5079190;28;20317;-59
2023/10/21 07:37:30;;;;;;;0.50;0.50;;;;;;;;;;5080810;28;20230;-60
2023/10/21 07:39:58;;;;;;;0.93;0.55;;;;;;;;;;5079200;28;20200;-60
2023/10/21 07:42:25;;;;;;;0.52;0.43;;;;;;;;;;5077401;28;20224;-60
2023/10/21 07:44:51;;;;;;;0.43;0.43;;;;;;;;;;5080420;28;20247;-60
2023/10/21 07:47:18;;;;;;;0.32;0.30;;;;;;;;;;5083400;28;20192;-60
2023/10/21 07:49:44;;;;;;;0.25;0.25;;;;;;;;;;5084303;28;20205;-60
2023/10/21 07:52:10;;;;;;;0.80;0.40;;;;;;;;;;5081055;28;20212;-60
2023/10/21 07:54:37;;;;;;;0.40;0.40;;;;;;;;;;5080557;28;20250;-60
2023/10/21 07:57:05;;;;;;;1.65;0.40;;;;;;;;;;5082990;28;20239;-60
2023/10/21 07:59:32;;;;;;;2.83;0.30;;;;;;;;;;5084158;28;20200;-60
2023/10/21 08:01:58;;;;;;;1.13;0.60;;;;;;;;;;5082522;28;20218;-60
2023/10/21 08:04:24;;;;;;;0.43;0.43;;;;;;;;;;5080419;28;20442;-60
2023/10/21 08:06:50;;;;;;;0.50;0.50;;;;;;;;;;5080742;28;20691;-59
2023/10/21 08:09:17;;;;;;;1.27;0.30;;;;;;;;;;5084007;28;20656;-59
2023/10/21 08:11:44;;;;;;;0.75;0.40;;;;;;;;;;5084072;28;20224;-59
2023/10/21 08:14:12;;;;;;;0.73;0.73;;;;;;;;;;5080326;28;20220;-59
2023/10/21 08:16:38;;;;;;;0.90;0.68;;;;;;;;;;5080694;28;20200;-60
2023/10/21 08:19:05;;;;;;;0.30;0.30;;;;;;;;;;5082703;28;20208;-60
2023/10/21 08:21:33;;;;;;;0.68;0.30;;;;;;;;;;5083899;28;20663;-59
2023/10/21 08:24:00;;;;;;;0.70;0.40;;;;;;;;;;5081998;28;20250;-60
2023/10/21 08:26:28;;;;;;;0.60;0.60;;;;;;;;;;5080576;28;20257;-60
2023/10/21 08:28:54;;;;;;;0.70;0.60;;;;;;;;;;5080563;28;20204;-60
2023/10/21 08:31:23;;;;;;;0.90;0.90;;;;;;;;;;5083496;28;20212;-60
2023/10/21 08:33:49;;;;;;;0.60;0.60;;;;;;;;;;5083512;28;20200;-60
2023/10/21 08:36:16;;;;;;;0.45;0.20;;;;;;;;;;5083538;28;20669;-60
2023/10/21 08:38:43;;;;;;;0.70;0.40;;;;;;;;;;5083611;28;20214;-60
2023/10/21 08:41:10;;;;;;;0.40;0.40;;;;;;;;;;5080846;28;20195;-60
2023/10/21 08:43:37;;;;;;;0.60;0.60;;;;;;;;;;5079868;28;20228;-60
2023/10/21 08:46:03;;;;;;;1.00;0.40;;;;;;;;;;5088431;28;20200;-60
2023/10/21 08:48:31;;;;;;;0.63;0.28;;;;;;;;;;5080209;28;20223;-60
2023/10/21 08:50:58;;;;;;;0.50;0.30;;;;;;;;;;5080568;28;20719;-60
2023/10/21 08:53:24;;;;;;;1.25;0.93;;;;;;;;;;5083413;28;20202;-60
2023/10/21 08:55:51;;;;;;;2.80;1.13;;;;;;;;;;5083244;28;20306;-60
2023/10/21 08:58:17;;;;;;;1.45;0.45;;;;;;;;;;5079733;28;20192;-60
2023/10/21 09:00:44;;;;;;;1.35;1.00;;;;;;;;;;5079174;28;20197;-60
2023/10/21 09:03:13;;;;;;;3.28;1.20;;;;;;;;;;5082230;28;20215;-59
2023/10/21 09:05:54;;;;;;;1.42;0.38;;;;;;;;;;5083007;28;20268;-60
2023/10/21 09:08:30;;;;;;;1.65;0.60;;;;;;;;;;5071009;28;20692;-60
2023/10/21 09:10:58;;;;;;;2.28;0.70;;;;;;;;;;5080073;28;20219;-60
2023/10/21 09:13:29;;;;;;;1.05;0.40;;;;;;;;;;5083286;28;20249;-58
2023/10/21 09:15:55;;;;;;;2.92;0.70;;;;;;;;;;5082404;28;20220;-60
2023/10/21 09:18:22;;;;;;;0.43;0.43;;;;;;;;;;5079573;28;20582;-59
2023/10/21 09:20:49;;;;;;;3.03;0.73;;;;;;;;;;5079816;28;20196;-59
2023/10/21 09:23:17;;;;;;;2.97;0.40;;;;;;;;;;5082850;28;20204;-60
2023/10/21 09:25:50;;;;;;;1.98;0.98;;;;;;;;;;5083077;28;20230;-61
2023/10/21 09:28:20;;;;;;;1.23;0.95;;;;;;;;;;5080226;28;20656;-59
2023/10/21 09:30:54;;;;;;;1.48;0.60;;;;;;;;;;5079546;28;20576;-59
2023/10/21 09:33:21;;;;;;;2.53;1.02;;;;;;;;;;5079780;28;20200;-59
2023/10/21 09:35:49;;;;;;;0.82;0.75;;;;;;;;;;5079292;28;20591;-59
2023/10/21 09:38:16;;;;;;;1.33;0.68;;;;;;;;;;5082308;28;20207;-59
2023/10/21 09:40:42;;;;;;;1.70;0.75;;;;;;;;;;5083095;28;20687;-60
2023/10/21 09:43:11;;;;;;;1.17;0.50;;;;;;;;;;5081277;28;20200;-60
2023/10/21 09:45:39;;;;;;;1.83;1.67;;;;;;;;;;5079247;28;20228;-60
2023/10/21 09:48:06;;;;;;;1.30;1.05;;;;;;;;;;5080490;28;20208;-60
2023/10/21 09:50:32;;;;;;;1.55;0.95;;;;;;;;;;5082792;28;20207;-60
2023/10/21 09:53:02;;;;;;;2.42;0.98;;;;;;;;;;5082947;28;20210;-60
2023/10/21 09:55:31;;;;;;;2.25;0.80;;;;;;;;;;5079332;28;20220;-60
2023/10/21 09:57:58;;;;;;;1.80;1.05;;;;;;;;;;5079257;28;20571;-60
2023/10/21 10:00:25;;;;;;;1.35;1.25;;;;;;;;;;5079371;28;20415;-60
2023/10/21 10:02:53;;;;;;;1.90;0.70;;;;;;;;;;5079276;28;20196;-60
2023/10/21 10:05:20;;;;;;;0.98;0.80;;;;;;;;;;5081982;28;20220;-60
2023/10/21 10:07:47;;;;;;;1.45;0.82;;;;;;;;;;5083005;28;20211;-60
2023/10/21 10:10:14;;;;;;;0.68;0.60;;;;;;;;;;5081046;28;20210;-61
2023/10/21 10:12:44;;;;;;;0.40;0.30;;;;;;;;;;5082781;28;20583;-61
2023/10/21 10:15:31;;;;;;;0.50;0.50;;;;;;;;;;5083645;28;20715;-60
2023/10/21 10:17:58;;;;;;;0.80;0.30;;;;;;;;;;5086091;28;20231;-60
2023/10/21 10:20:26;;;;;;;1.88;0.47;;;;;;;;;;5082814;28;20203;-59
2023/10/21 10:22:59;;;;;;;1.00;0.50;;;;;;;;;;5082829;28;20197;-60
2023/10/21 10:25:27;;;;;;;2.22;0.35;;;;;;;;;;5085700;28;20220;-60
2023/10/21 10:27:56;;;;;;;0.47;0.47;;;;;;;;;;5085931;28;20290;-59
2023/10/21 10:30:23;;;;;;;2.47;0.47;;;;;;;;;;5083254;28;20207;-59
2023/10/21 10:32:51;;;;;;;1.15;0.43;;;;;;;;;;5082516;28;20216;-60
2023/10/21 10:35:29;;;;;;;1.08;0.40;;;;;;;;;;5084177;28;20703;-60
2023/10/21 10:37:56;;;;;;;0.55;0.30;;;;;;;;;;5085978;28;20269;-60
2023/10/21 10:40:32;;;;;;;1.73;0.20;;;;;;;;;;5083335;28;20592;-60
2023/10/21 10:42:58;;;;;;;0.30;0.30;;;;;;;;;;5082405;28;20200;-59
2023/10/21 10:45:25;;;;;;;1.17;0.22;;;;;;;;;;5084965;28;20216;-60
2023/10/21 10:47:57;;;;;;;2.50;0.50;;;;;;;;;;5085815;28;20195;-60
2023/10/21 10:50:24;;;;;;;1.05;0.35;;;;;;;;;;5077294;28;20212;-60
2023/10/21 10:52:50;;;;;;;3.55;0.30;;;;;;;;;;5085384;28;20216;-59
2023/10/21 10:55:16;;;;;;;1.13;0.63;;;;;;;;;;5083163;28;20215;-60
2023/10/21 10:57:43;;;;;;;0.20;0.20;;;;;;;;;;5082110;28;20212;-59
2023/10/21 11:00:10;;;;;;;0.90;0.40;;;;;;;;;;5082731;28;20816;-59
2023/10/21 11:02:42;;;;;;;0.75;0.40;;;;;;;;;;5080976;28;20203;-59
2023/10/21 11:05:15;;;;;;;0.40;0.40;;;;;;;;;;5081838;28;20224;-60
2023/10/21 11:07:41;;;;;;;0.88;0.43;;;;;;;;;;5085665;28;20204;-59
2023/10/21 11:10:08;;;;;;;0.35;0.35;;;;;;;;;;5084820;28;20697;-59
2023/10/21 11:12:34;;;;;;;0.75;0.40;;;;;;;;;;5081728;28;20226;-60
2023/10/21 11:15:01;;;;;;;0.70;0.40;;;;;;;;;;5081350;28;20232;-59
2023/10/21 11:17:27;;;;;;;0.98;0.30;;;;;;;;;;5084384;28;20272;-60
2023/10/21 11:19:55;;;;;;;1.25;0.50;;;;;;;;;;5084887;28;20203;-60
2023/10/21 11:22:25;;;;;;;1.65;0.55;;;;;;;;;;5082297;28;20200;-60
2023/10/21 11:24:51;;;;;;;0.63;0.35;;;;;;;;;;5081096;28;20217;-60
2023/10/21 11:27:18;;;;;;;0.95;0.50;;;;;;;;;;5082636;28;20196;-60
2023/10/21 11:29:44;;;;;;;0.35;0.20;;;;;;;;;;5084692;28;20605;-58
2023/10/21 11:32:11;;;;;;;0.30;0.20;;;;;;;;;;5084178;28;20212;-60
2023/10/21 11:34:37;;;;;;;0.25;0.25;;;;;;;;;;5080572;28;20278;-60
2023/10/21 11:37:05;;;;;;;0.40;0.40;;;;;;;;;;5081373;28;20675;-60
2023/10/21 11:39:32;;;;;;;0.22;0.20;;;;;;;;;;5084669;28;20660;-60
2023/10/21 11:41:59;;;;;;;1.85;0.40;;;;;;;;;;5084983;28;20199;-60
2023/10/21 11:44:26;;;;;;;1.52;0.40;;;;;;;;;;5081916;28;20230;-61
2023/10/21 11:46:56;;;;;;;1.67;0.40;;;;;;;;;;5081299;28;20206;-60
2023/10/21 11:49:23;;;;;;;0.40;0.38;;;;;;;;;;5083527;28;20205;-60
2023/10/21 11:51:52;;;;;;;0.32;0.32;;;;;;;;;;5084914;28;20211;-60
2023/10/21 11:54:32;;;;;;;1.25;0.45;;;;;;;;;;5083037;28;20246;-61
2023/10/21 12:05:52;;;;;;;4.63;0.50;;;;;;;;;;5081409;28;20219;-61
2023/10/21 12:14:31;;;;;;;0.85;0.40;;;;;;;;;;5073508;28;20563;-61
2023/10/21 12:17:01;;;;;;;0.22;0.20;;;;;;;;;;5080430;28;20275;-61
2023/10/21 12:22:32;;;;;;;0.30;0.30;;;;;;;;;;5084494;28;20267;-61
2023/10/21 12:36:33;;;;;;;0.93;0.40;;;;;;;;;;5082616;28;20627;-59
2023/10/21 12:41:40;;;;;;;0.30;0.30;;;;;;;;;;5072829;28;20667;-60
2023/10/21 12:44:12;;;;;;;0.77;0.40;;;;;;;;;;5076882;28;20216;-60
2023/10/21 12:46:40;;;;;;;0.52;0.25;;;;;;;;;;5080133;28;20703;-60
2023/10/21 12:49:12;;;;;;;0.65;0.40;;;;;;;;;;5080552;28;20486;-60
2023/10/21 12:51:39;;;;;;;0.88;0.40;;;;;;;;;;5076455;28;20248;-60
2023/10/21 12:54:09;;;;;;;0.60;0.50;;;;;;;;;;5077019;28;20699;-59
2023/10/21 12:56:36;;;;;;;1.40;0.30;;;;;;;;;;5079746;28;20335;-59
2023/10/21 12:59:02;;;;;;;0.80;0.40;;;;;;;;;;5083086;28;20570;-59
2023/10/21 13:01:29;;;;;;;0.82;0.30;;;;;;;;;;5081956;28;20207;-60
2023/10/21 13:03:57;;;;;;;0.65;0.30;;;;;;;;;;5079764;28;20228;-60
2023/10/21 13:06:23;;;;;;;3.58;1.98;;;;;;;;;;5081338;28;20201;-60
2023/10/21 13:08:50;;;;;;;0.75;0.60;;;;;;;;;;5083996;28;20196;-60
2023/10/21 13:11:17;;;;;;;0.50;0.40;;;;;;;;;;5083815;28;20238;-60
2023/10/21 13:13:44;;;;;;;1.90;0.52;;;;;;;;;;5079785;28;20215;-60
2023/10/21 13:16:10;;;;;;;2.05;1.95;;;;;;;;;;5080192;28;20223;-60
2023/10/21 13:18:37;;;;;;;3.30;3.17;;;;;;;;;;5082723;28;20211;-60
2023/10/21 13:21:06;;;;;;;2.30;1.50;;;;;;;;;;5084243;28;20196;-60
2023/10/21 13:23:34;;;;;;;0.80;0.80;;;;;;;;;;5081928;28;20674;-61
2023/10/21 13:26:00;;;;;;;0.65;0.50;;;;;;;;;;5080426;28;20229;-61
2023/10/21 13:28:27;;;;;;;0.73;0.60;;;;;;;;;;5081694;28;20203;-61
2023/10/21 13:30:53;;;;;;;0.80;0.30;;;;;;;;;;5083588;28;20240;-61
2023/10/21 13:33:19;;;;;;;0.57;0.50;;;;;;;;;;5084149;28;20243;-60
2023/10/21 13:35:46;;;;;;;0.63;0.50;;;;;;;;;;5080671;28;20216;-61
2023/10/21 13:38:15;;;;;;;0.35;0.35;;;;;;;;;;5081127;28;20200;-60
2023/10/21 13:40:43;;;;;;;1.90;0.30;;;;;;;;;;5083297;28;20635;-61
2023/10/21 13:43:10;;;;;;;2.20;0.40;;;;;;;;;;5083363;28;20187;-60
2023/10/21 13:45:36;;;;;;;0.95;0.60;;;;;;;;;;5081579;28;20273;-60
2023/10/21 13:48:08;;;;;;;0.98;0.57;;;;;;;;;;5083620;28;20228;-59
2023/10/21 13:50:36;;;;;;;1.02;0.32;;;;;;;;;;5085518;28;20208;-60
2023/10/21 13:53:10;;;;;;;1.95;0.80;;;;;;;;;;5087814;28;20220;-60
2023/10/21 13:55:38;;;;;;;0.90;0.90;;;;;;;;;;5085417;28;20231;-61
2023/10/21 13:58:05;;;;;;;1.38;1.00;;;;;;;;;;5083147;28;20196;-60
2023/10/21 14:00:40;;;;;;;0.77;0.57;;;;;;;;;;5084945;28;20208;-61
2023/10/21 14:03:09;;;;;;;0.50;0.50;;;;;;;;;;5086753;28;20196;-61
2023/10/21 14:05:37;;;;;;;0.70;0.70;;;;;;;;;;5084144;28;20222;-60
2023/10/21 14:08:04;;;;;;;0.50;0.50;;;;;;;;;;5083415;28;20578;-59
2023/10/21 14:10:36;;;;;;;0.88;0.80;;;;;;;;;;5084184;28;20715;-60
2023/10/21 14:13:04;;;;;;;1.40;0.65;;;;;;;;;;5086007;28;20207;-60
2023/10/21 14:15:31;;;;;;;2.15;0.90;;;;;;;;;;5084758;28;20247;-60
2023/10/21 14:17:57;;;;;;;1.00;1.00;;;;;;;;;;5082644;28;20313;-60
2023/10/21 14:20:23;;;;;;;2.67;1.45;;;;;;;;;;5082780;28;20207;-60
2023/10/21 14:22:50;;;;;;;2.08;0.70;;;;;;;;;;5082486;28;20192;-59
2023/10/21 14:25:18;;;;;;;0.45;0.40;;;;;;;;;;5082449;28;20224;-60
2023/10/21 14:27:46;;;;;;;0.63;0.45;;;;;;;;;;5087167;28;20430;-60
2023/10/21 14:30:14;;;;;;;0.60;0.50;;;;;;;;;;5086556;28;20729;-58
2023/10/21 14:32:41;;;;;;;0.35;0.35;;;;;;;;;;5083372;28;20568;-60
2023/10/21 14:35:09;;;;;;;0.40;0.40;;;;;;;;;;5081741;28;20220;-60
2023/10/21 14:37:35;;;;;;;1.20;0.35;;;;;;;;;;5083672;28;20255;-59
2023/10/21 14:40:03;;;;;;;0.98;0.47;;;;;;;;;;5086101;28;20207;-59
2023/10/21 14:42:31;;;;;;;0.77;0.40;;;;;;;;;;5084843;28;20207;-60
2023/10/21 14:44:57;;;;;;;1.23;0.50;;;;;;;;;;5082215;28;20223;-60
2023/10/21 14:47:29;;;;;;;0.98;0.65;;;;;;;;;;5081912;28;20549;-59
2023/10/21 14:49:57;;;;;;;0.40;0.40;;;;;;;;;;5074558;28;20196;-60
2023/10/21 14:52:24;;;;;;;0.77;0.50;;;;;;;;;;5081916;28;20270;-60
2023/10/21 14:54:50;;;;;;;1.05;0.50;;;;;;;;;;5086039;28;20222;-60
2023/10/21 14:57:16;;;;;;;1.10;1.00;;;;;;;;;;5084982;28;20202;-60
2023/10/21 14:59:43;;;;;;;2.50;1.40;;;;;;;;;;5082972;28;20207;-60
2023/10/21 15:02:09;;;;;;;4.68;2.03;;;;;;;;;;5081935;28;20200;-60
2023/10/21 15:04:36;;;;;;;7.43;2.53;;;;;;;;;;5082323;28;20232;-60
2023/10/21 15:07:03;;;;;;;1.27;0.73;;;;;;;;;;5084898;28;20234;-58
2023/10/21 15:09:29;;;;;;;17.80;5.32;;;;;;;;;;5084840;28;20200;-60
2023/10/21 15:11:55;;;;;;;12.25;4.00;;;;;;;;;;5081724;28;20204;-59
2023/10/21 15:14:22;;;;;;;12.80;4.38;;;;;;;;;;5081085;28;20216;-59